Terminal Aerodrome Forecast
Issued by NWS Salt Lake City, UT

Home | Current Version | Previous Version | Text Only | Print | Product List | Glossary On
Versions: 1 2 3 4 5 6 7 8 9 10 11 12 13 14 15 16 17 18 19 20 21 22 23 24 25 26 27 28 29
000
FTUS45 KSLC 240252 AAA
TAFSLC
TAF AMD
KSLC 240252Z 2403/2506 14006KT P6SM SKC
     FM241000 16012KT P6SM SKC
     FM241600 17014G22KT P6SM SKC
     FM242100 26011KT P6SM FEW080 SCT120
     FM250200 32012KT P6SM VCSH SCT070 BKN100=

USA.gov is the U.S. government's official web portal to all federal, state and local government web resources and services.